»·PEaware :: N20957 KSEZ-KPRC

N20957 :: KSEZ-KPRC

FLIGHT INFORMATION

Flight Status: Arrived
Operator: Privately registered:
United States
More flights under this callsign
Pilot: Charles P. (32095)
Aircraft: CESSNA 172 SKYHAWK
(C172)
More flights by this aircraft type
Origin: KSEZ Sedona
United States
Destination: KPRC Love
United States
More flights between these airports :: More routes between these airports
Route:
File this flight plan on PilotEdge
Remarks: N / A
Altitude:
(Current/Filed)
7,500ft
Speed:
(Current/Filed)
124kts
Departed: 24-Aug-21 11:25 AM
Arrived: 24-Aug-21 11:48 AM
Distance/Time
Traveled:
34nm/0:22
Distance/Time
To Go:
Arrived

Flight Plot

Page will automatically refresh every two minutes.

Flight plan parsing failed; only flown route is shown


Map Options




Map Legend


Flown Route
Filed Route
Departure Airport
Arrival Airport
Navaid (VOR, NDB)
Fix

Horizontal Profiles

Position Reports

Time Latitude Longitude Heading Altitude Ground
Speed
24-Aug-21 10:52 34.849197 -111.792136 138 4781ft 0kts
24-Aug-21 10:53 34.849197 -111.792136 138 4781ft 0kts
24-Aug-21 10:54 34.849197 -111.792136 138 4781ft 0kts
24-Aug-21 10:55 34.849197 -111.792136 138 4781ft 0kts
24-Aug-21 10:56 34.849197 -111.792136 138 4781ft 0kts
24-Aug-21 10:57 34.849197 -111.792136 138 4781ft 0kts
24-Aug-21 10:58 34.849197 -111.792136 138 4781ft 0kts
24-Aug-21 10:59 34.849197 -111.792136 138 4781ft 0kts
24-Aug-21 11:00 34.849197 -111.792136 138 4781ft 0kts
24-Aug-21 11:01 34.849197 -111.792136 138 4781ft 0kts
24-Aug-21 11:02 34.849197 -111.792136 138 4781ft 0kts
24-Aug-21 11:03 34.849197 -111.792136 138 4781ft 0kts
24-Aug-21 11:04 34.849197 -111.792136 138 4781ft 0kts
24-Aug-21 11:05 34.849197 -111.792136 138 4781ft 0kts
24-Aug-21 11:06 34.849197 -111.792136 138 4781ft 0kts
24-Aug-21 11:07 34.849197 -111.792136 138 4781ft 0kts
24-Aug-21 11:08 34.849197 -111.792136 138 4781ft 0kts
24-Aug-21 11:09 34.849197 -111.792136 138 4781ft 0kts
24-Aug-21 11:10 34.849197 -111.792136 138 4781ft 0kts
24-Aug-21 11:11 34.849197 -111.792136 138 4781ft 0kts
24-Aug-21 11:12 34.849197 -111.792137 138 4781ft 0kts
24-Aug-21 11:13 34.848974 -111.792211 225 4778ft 7kts
24-Aug-21 11:14 34.848832 -111.791802 46 4777ft 4kts
24-Aug-21 11:15 34.848392 -111.789886 47 4777ft 9kts
24-Aug-21 11:16 34.849868 -111.788001 47 4789ft 11kts
24-Aug-21 11:17 34.852034 -111.785333 47 4813ft 11kts
24-Aug-21 11:18 34.853721 -111.783075 68 4830ft 4kts
24-Aug-21 11:19 34.853692 -111.782935 143 4831ft 0kts
24-Aug-21 11:20 34.853692 -111.782935 143 4831ft 0kts
24-Aug-21 11:21 34.853692 -111.782935 143 4831ft 0kts
24-Aug-21 11:22 34.853691 -111.782935 143 4831ft 0kts
24-Aug-21 11:23 34.853496 -111.782813 153 4831ft 7kts
24-Aug-21 11:24 34.844733 -111.793384 215 4906ft 62kts
24-Aug-21 11:25 34.832306 -111.811909 266 5238ft 81kts
24-Aug-21 11:26 34.834821 -111.837472 258 5762ft 72kts
24-Aug-21 11:27 34.828109 -111.860401 245 6261ft 72kts
24-Aug-21 11:28 34.821202 -111.883435 244 6757ft 72kts
24-Aug-21 11:29 34.814531 -111.904929 244 7240ft 61kts
24-Aug-21 11:30 34.807903 -111.926225 246 7434ft 84kts
24-Aug-21 11:31 34.798322 -111.957664 245 7432ft 108kts
24-Aug-21 11:32 34.787487 -111.992692 245 7441ft 113kts
24-Aug-21 11:33 34.776238 -112.029035 245 7427ft 115kts
24-Aug-21 11:34 34.766172 -112.061640 243 7850ft 90kts
24-Aug-21 11:35 34.758373 -112.086715 243 8308ft 66kts
24-Aug-21 11:36 34.752161 -112.106595 242 8481ft 69kts
24-Aug-21 11:37 34.744047 -112.133222 244 8518ft 98kts
24-Aug-21 11:38 34.733464 -112.167140 244 8492ft 109kts
24-Aug-21 11:39 34.721915 -112.204133 245 8284ft 131kts
24-Aug-21 11:40 34.708364 -112.247812 245 7314ft 140kts
24-Aug-21 11:41 34.722588 -112.285372 318 6297ft 153kts
24-Aug-21 11:42 34.721223 -112.326067 244 5892ft 109kts
24-Aug-21 11:43 34.711283 -112.358479 240 5870ft 96kts
24-Aug-21 11:44 34.691854 -112.379926 215 5870ft 97kts
24-Aug-21 11:45 34.675083 -112.397699 220 5573ft 67kts
24-Aug-21 11:46 34.660407 -112.413208 228 4971ft 57kts
24-Aug-21 11:47 34.656920 -112.415663 130 4988ft 4kts
24-Aug-21 11:48 34.656912 -112.415653 132 4988ft 0kts
24-Aug-21 11:49 34.656229 -112.415871 221 4990ft 9kts
24-Aug-21 11:50 34.654116 -112.418120 221 5000ft 8kts
24-Aug-21 11:51 34.652705 -112.419626 222 5009ft 8kts
24-Aug-21 11:52 34.650476 -112.422008 220 5020ft 13kts
24-Aug-21 11:53 34.649249 -112.423292 220 5023ft 0kts
24-Aug-21 11:54 34.648731 -112.423843 221 5024ft 8kts
24-Aug-21 11:55 34.647128 -112.423426 218 5024ft 6kts
24-Aug-21 11:56 34.647360 -112.424286 218 5023ft 0kts
24-Aug-21 11:57 34.647343 -112.424282 126 5023ft 0kts

Navigation Log

Ident Type
Flight plan parsing failed, navigation log unavailable